Terminal Aerodrome Forecast
Issued by NWS

Home | Current Version | Previous Version | Text Only | Print | Product List | Glossary On
Versions: 1 2 3 4 5 6 7 8 9 10 11 12 13 14 15 16 17 18 19 20 21 22 23
000
FTUS41 KOKX 040818 AAA
TAFHPN
TAF AMD
KHPN 040818Z 0408/0506 VRB02KT P6SM SCT060 OVC100
      TEMPO 0409/0412 -RA
     FM041400 07006KT P6SM SCT035 OVC060
      TEMPO 0415/0418 5SM -RA BKN035
     FM041800 03009KT P6SM SCT035 OVC060
      TEMPO 0418/0420 5SM -RA BKN035
     FM050000 VRB04KT P6SM BKN060
      AMD NOT SKED=

USA.gov is the U.S. government's official web portal to all federal, state and local government web resources and services.